Time;durP1;ratioP1;P1;durP2;ratioP2;P2;SDS_P1;SDS_P2;PMS_P1;PMS_P2;Temp;Humidity;BMP_temperature;BMP_pressure;BME280_temperature;BME280_humidity;BME280_pressure;Samples;Min_cycle;Max_cycle;Signal;HPM_P1;HPM_P2
2022/04/02 00:02:10;;;;;;;29.57;22.47;;;1.30;99.90;;;;;;5011442;28;20478;-69
2022/04/02 00:04:38;;;;;;;28.17;20.60;;;1.30;99.90;;;;;;5009632;28;20541;-68
2022/04/02 00:07:05;;;;;;;26.17;20.53;;;1.30;99.90;;;;;;5014568;28;20456;-69
2022/04/02 00:09:33;;;;;;;26.43;20.67;;;1.30;99.90;;;;;;5013640;28;20585;-70
2022/04/02 00:12:00;;;;;;;28.33;21.73;;;1.30;99.90;;;;;;5011255;28;20481;-70
2022/04/02 00:14:27;;;;;;;27.67;23.23;;;1.30;99.90;;;;;;5009331;28;20457;-71
2022/04/02 00:16:53;;;;;;;26.60;20.37;;;1.30;99.90;;;;;;5010461;28;20552;-68
2022/04/02 00:19:21;;;;;;;30.40;21.90;;;1.30;99.90;;;;;;5010409;28;20500;-71
2022/04/02 00:21:49;;;;;;;23.70;19.47;;;1.30;99.90;;;;;;5010242;28;20469;-67
2022/04/02 00:24:16;;;;;;;26.17;21.53;;;1.30;99.90;;;;;;5009267;28;20457;-68
2022/04/02 00:26:43;;;;;;;27.23;20.67;;;1.30;99.90;;;;;;5009930;28;20940;-70
2022/04/02 00:29:11;;;;;;;29.73;22.17;;;1.30;99.90;;;;;;5005359;28;20521;-69
2022/04/02 00:31:38;;;;;;;26.53;19.57;;;1.30;99.90;;;;;;5010058;28;20488;-68
2022/04/02 00:34:05;;;;;;;25.00;20.70;;;1.30;99.90;;;;;;5009370;28;20494;-70
2022/04/02 00:36:37;;;;;;;27.07;21.30;;;1.30;99.90;;;;;;5017613;28;20473;-68
2022/04/02 00:39:07;;;;;;;24.07;19.17;;;1.30;99.90;;;;;;5012165;28;20462;-69
2022/04/02 00:41:34;;;;;;;23.13;19.03;;;1.30;99.90;;;;;;5009724;28;20469;-70
2022/04/02 00:44:09;;;;;;;28.53;21.80;;;1.30;99.90;;;;;;5010432;28;20458;-71
2022/04/02 00:46:36;;;;;;;26.40;20.57;;;1.30;99.90;;;;;;5009305;28;20480;-70
2022/04/02 00:49:04;;;;;;;24.57;19.13;;;1.40;99.90;;;;;;5010178;28;20490;-72
2022/04/02 00:51:32;;;;;;;27.00;19.63;;;1.40;99.90;;;;;;5009292;28;20536;-73
2022/04/02 00:54:00;;;;;;;26.93;20.80;;;1.30;99.90;;;;;;5009812;28;20477;-69
2022/04/02 00:56:29;;;;;;;26.03;19.10;;;1.40;99.90;;;;;;5008926;28;20477;-70
2022/04/02 00:58:56;;;;;;;26.37;20.10;;;1.40;99.90;;;;;;5011052;28;20457;-71
2022/04/02 01:01:22;;;;;;;25.90;20.03;;;1.40;99.90;;;;;;5010263;28;20474;-69
2022/04/02 01:03:49;;;;;;;27.50;21.27;;;1.40;99.90;;;;;;5010740;28;20458;-69
2022/04/02 01:06:17;;;;;;;28.67;19.77;;;1.40;99.90;;;;;;5013198;28;20906;-72
2022/04/02 01:08:44;;;;;;;26.57;20.50;;;1.40;99.90;;;;;;5020692;28;21217;-70
2022/04/02 01:11:11;;;;;;;28.33;21.60;;;1.40;99.90;;;;;;5010268;28;20492;-69
2022/04/02 01:13:39;;;;;;;25.10;18.10;;;1.40;99.90;;;;;;5009826;28;20913;-71
2022/04/02 01:16:06;;;;;;;24.57;19.93;;;1.40;99.90;;;;;;5008671;28;20449;-71
2022/04/02 01:18:33;;;;;;;25.13;18.67;;;1.40;99.90;;;;;;5009578;28;20543;-69
2022/04/02 01:21:00;;;;;;;31.93;22.13;;;1.40;99.90;;;;;;5010026;28;20477;-71
2022/04/02 01:23:31;;;;;;;26.70;20.63;;;1.40;99.90;;;;;;5009992;28;20456;-71
2022/04/02 01:26:00;;;;;;;26.90;21.10;;;1.40;99.90;;;;;;5008940;28;20449;-69
2022/04/02 01:28:33;;;;;;;25.30;18.57;;;1.50;99.90;;;;;;5009201;28;20588;-70
2022/04/02 01:31:02;;;;;;;24.83;20.40;;;1.40;99.90;;;;;;5009732;28;21047;-70
2022/04/02 01:33:29;;;;;;;24.30;18.73;;;1.40;99.90;;;;;;5009247;28;20457;-70
2022/04/02 01:36:00;;;;;;;26.10;19.90;;;1.40;99.90;;;;;;5010498;28;20545;-70
2022/04/02 01:38:29;;;;;;;20.00;17.87;;;1.40;99.90;;;;;;5005086;28;20446;-71
2022/04/02 01:40:57;;;;;;;22.30;19.73;;;1.50;99.90;;;;;;5011789;28;20478;-70
2022/04/02 01:43:25;;;;;;;22.70;19.13;;;1.50;99.90;;;;;;5012575;28;20830;-71
2022/04/02 01:45:55;;;;;;;21.97;19.10;;;1.50;99.90;;;;;;5014527;28;20521;-70
2022/04/02 01:48:22;;;;;;;23.10;19.47;;;1.50;99.90;;;;;;5012841;28;20811;-71
2022/04/02 01:50:50;;;;;;;23.93;18.90;;;1.50;99.90;;;;;;5009418;28;20458;-70
2022/04/02 01:53:17;;;;;;;22.93;18.50;;;1.50;99.90;;;;;;5009686;28;20476;-70
2022/04/02 01:55:45;;;;;;;19.53;17.43;;;1.50;99.90;;;;;;5010153;28;20487;-73
2022/04/02 01:58:12;;;;;;;22.83;18.27;;;1.50;99.90;;;;;;5012027;28;20446;-69
2022/04/02 02:00:39;;;;;;;21.53;18.40;;;1.50;99.90;;;;;;5011034;28;20449;-71
2022/04/02 02:03:07;;;;;;;22.73;17.70;;;1.50;99.90;;;;;;5011587;28;20541;-68
2022/04/02 02:05:34;;;;;;;21.30;18.57;;;1.50;99.90;;;;;;5009058;28;20450;-71
2022/04/02 02:08:01;;;;;;;20.93;16.97;;;1.50;99.90;;;;;;5028739;28;20495;-72
2022/04/02 02:10:28;;;;;;;22.60;18.47;;;1.50;99.90;;;;;;5030605;28;20490;-71
2022/04/02 02:12:56;;;;;;;21.60;17.77;;;1.50;99.90;;;;;;5030201;28;20468;-71
2022/04/02 02:15:24;;;;;;;19.30;16.50;;;1.50;99.90;;;;;;5029799;28;20452;-72
2022/04/02 02:17:51;;;;;;;20.23;17.43;;;1.60;99.90;;;;;;5031825;28;20463;-71
2022/04/02 02:20:19;;;;;;;16.97;14.80;;;1.60;99.90;;;;;;5030604;28;20947;-71
2022/04/02 02:22:47;;;;;;;19.53;15.03;;;1.50;99.90;;;;;;5030014;28;21000;-72
2022/04/02 02:25:16;;;;;;;20.60;16.13;;;1.50;99.90;;;;;;5030112;28;20451;-71
2022/04/02 02:27:44;;;;;;;21.30;16.60;;;1.50;99.90;;;;;;5030485;28;20455;-69
2022/04/02 02:30:14;;;;;;;20.13;16.40;;;1.50;99.90;;;;;;5035148;28;20823;-71
2022/04/02 02:32:41;;;;;;;20.10;15.67;;;1.50;99.90;;;;;;5035022;28;20500;-70
2022/04/02 02:38:03;;;;;;;16.73;13.57;;;1.60;99.90;;;;;;5033914;28;20503;-73
2022/04/02 02:40:30;;;;;;;17.53;15.07;;;1.60;99.90;;;;;;5034007;28;20482;-71
2022/04/02 02:42:57;;;;;;;17.10;15.30;;;1.50;99.90;;;;;;5033894;28;20544;-71
2022/04/02 02:45:25;;;;;;;19.10;14.10;;;1.50;99.90;;;;;;5033184;28;20455;-71
2022/04/02 02:47:52;;;;;;;20.30;14.27;;;1.50;99.90;;;;;;5033311;28;20528;-71
2022/04/02 02:50:19;;;;;;;21.80;16.00;;;1.50;99.90;;;;;;5033763;28;20480;-71
2022/04/02 02:52:46;;;;;;;18.07;14.10;;;1.50;99.90;;;;;;5033662;28;20469;-71
2022/04/02 02:55:13;;;;;;;14.93;13.43;;;1.60;99.90;;;;;;5033174;28;20468;-72
2022/04/02 02:57:40;;;;;;;18.03;13.63;;;1.60;99.90;;;;;;5033289;28;20833;-69
2022/04/02 03:00:10;;;;;;;16.93;13.00;;;1.50;99.90;;;;;;5033611;28;20445;-71
2022/04/02 03:02:39;;;;;;;14.70;12.50;;;1.50;99.90;;;;;;5037200;28;20471;-71
2022/04/02 03:05:10;;;;;;;19.03;13.57;;;1.50;99.90;;;;;;5033746;28;20453;-71
2022/04/02 03:07:38;;;;;;;17.27;13.13;;;1.50;99.90;;;;;;5033376;28;20459;-70
2022/04/02 03:10:06;;;;;;;16.03;12.93;;;1.50;99.90;;;;;;5033518;28;20628;-71
2022/04/02 03:12:33;;;;;;;13.93;12.23;;;1.50;99.90;;;;;;5033434;28;20556;-72
2022/04/02 03:15:01;;;;;;;12.70;10.70;;;1.40;99.90;;;;;;5032986;28;20507;-71
2022/04/02 03:17:29;;;;;;;16.80;12.00;;;1.40;99.90;;;;;;5033751;28;20506;-71
2022/04/02 03:19:58;;;;;;;21.77;12.10;;;1.40;99.90;;;;;;5033512;28;20471;-72
2022/04/02 03:22:25;;;;;;;14.77;12.40;;;1.30;99.90;;;;;;5033419;28;21045;-71
2022/04/02 03:24:52;;;;;;;13.27;11.13;;;1.40;99.90;;;;;;5032761;28;20934;-71
2022/04/02 03:27:19;;;;;;;13.83;12.33;;;1.40;99.90;;;;;;5033132;28;20516;-72
2022/04/02 03:29:46;;;;;;;17.80;10.73;;;1.40;99.90;;;;;;5033146;28;20476;-71
2022/04/02 03:32:13;;;;;;;12.83;10.00;;;1.30;99.90;;;;;;5032781;28;20476;-71
2022/04/02 03:34:40;;;;;;;12.87;10.47;;;1.30;99.90;;;;;;5032519;28;20441;-71
2022/04/02 03:37:08;;;;;;;14.67;11.47;;;1.30;99.90;;;;;;5032947;28;20456;-71
2022/04/02 03:39:35;;;;;;;13.67;9.43;;;1.30;99.90;;;;;;5032322;28;20453;-71
2022/04/02 03:42:03;;;;;;;14.83;9.53;;;1.30;99.90;;;;;;5033132;28;20544;-71
2022/04/02 03:44:30;;;;;;;12.30;10.20;;;1.30;99.90;;;;;;5032618;28;20488;-71
2022/04/02 03:47:09;;;;;;;14.23;9.50;;;1.30;99.90;;;;;;5032477;28;20492;-70
2022/04/02 03:49:36;;;;;;;15.07;9.03;;;1.30;99.90;;;;;;5033293;28;20483;-71
2022/04/02 03:52:04;;;;;;;15.77;9.80;;;1.30;99.90;;;;;;5031595;28;20476;-71
2022/04/02 03:54:32;;;;;;;17.70;9.60;;;1.30;99.90;;;;;;5032535;28;20531;-70
2022/04/02 03:56:59;;;;;;;11.73;9.77;;;1.30;99.90;;;;;;5032265;28;20449;-71
2022/04/02 03:59:26;;;;;;;12.10;9.87;;;1.30;99.90;;;;;;5033367;28;20445;-72
2022/04/02 04:01:53;;;;;;;15.77;8.87;;;1.30;99.90;;;;;;5032863;28;20483;-70
2022/04/02 04:04:20;;;;;;;15.73;8.90;;;1.30;99.90;;;;;;5032736;28;20436;-71
2022/04/02 04:06:47;;;;;;;10.37;8.43;;;1.30;99.90;;;;;;5032651;28;20472;-72
2022/04/02 04:09:14;;;;;;;11.53;8.60;;;1.30;99.90;;;;;;5033344;28;20479;-71
2022/04/02 04:11:42;;;;;;;13.90;8.50;;;1.30;99.90;;;;;;5033226;28;20455;-70
2022/04/02 04:14:09;;;;;;;12.83;8.67;;;1.30;99.90;;;;;;5032574;28;20789;-72
2022/04/02 04:16:36;;;;;;;15.10;9.27;;;1.30;99.90;;;;;;5032435;28;20453;-71
2022/04/02 04:19:03;;;;;;;14.60;9.93;;;1.30;99.90;;;;;;5033037;28;20433;-70
2022/04/02 04:21:30;;;;;;;14.10;9.63;;;1.30;99.90;;;;;;5033088;28;20457;-70
2022/04/02 04:23:57;;;;;;;14.70;11.63;;;1.30;99.90;;;;;;5032861;28;20436;-71
2022/04/02 04:26:24;;;;;;;16.43;13.27;;;1.30;99.90;;;;;;5032049;28;20441;-71
2022/04/02 04:28:52;;;;;;;16.30;13.20;;;1.30;99.90;;;;;;5032740;28;20448;-70
2022/04/02 04:31:19;;;;;;;19.73;14.17;;;1.20;99.90;;;;;;5032302;28;20484;-71
2022/04/02 04:33:46;;;;;;;18.23;13.93;;;1.20;99.90;;;;;;5032697;28;20529;-71
2022/04/02 04:36:13;;;;;;;17.60;13.00;;;1.10;99.90;;;;;;5034019;28;20483;-71
2022/04/02 04:38:40;;;;;;;16.07;12.80;;;1.10;99.90;;;;;;5032294;28;20445;-70
2022/04/02 04:41:07;;;;;;;18.10;14.87;;;1.10;99.90;;;;;;5032268;28;20459;-71
2022/04/02 04:43:35;;;;;;;17.37;12.73;;;1.00;99.90;;;;;;5031792;28;20449;-71
2022/04/02 04:46:04;;;;;;;16.63;13.60;;;1.00;99.90;;;;;;5031168;28;20567;-71
2022/04/02 04:48:31;;;;;;;19.47;14.40;;;1.00;99.90;;;;;;5033259;28;20647;-70
2022/04/02 04:50:58;;;;;;;20.17;13.60;;;1.00;99.90;;;;;;5031970;28;20568;-70
2022/04/02 04:53:25;;;;;;;17.43;14.27;;;1.00;99.90;;;;;;5031551;28;20440;-70
2022/04/02 04:55:52;;;;;;;18.33;13.87;;;1.00;99.90;;;;;;5031204;28;20436;-71
2022/04/02 04:58:18;;;;;;;20.00;13.77;;;1.00;99.90;;;;;;5031706;28;20449;-70
2022/04/02 05:00:45;;;;;;;21.60;16.00;;;1.00;99.90;;;;;;5032444;28;20499;-69
2022/04/02 05:03:14;;;;;;;19.33;14.13;;;1.00;99.90;;;;;;5032338;28;20523;-70
2022/04/02 05:05:41;;;;;;;21.50;15.20;;;1.00;99.90;;;;;;5030782;28;20539;-69
2022/04/02 05:08:08;;;;;;;19.13;14.33;;;0.90;99.90;;;;;;5031321;28;20440;-70
2022/04/02 05:10:36;;;;;;;17.40;14.70;;;0.90;99.90;;;;;;5030876;28;21061;-69
2022/04/02 05:13:03;;;;;;;21.10;16.20;;;0.90;99.90;;;;;;5031702;28;20440;-70
2022/04/02 05:15:30;;;;;;;17.67;14.27;;;0.90;99.90;;;;;;5030951;28;20437;-70
2022/04/02 05:17:57;;;;;;;18.90;15.80;;;0.90;99.90;;;;;;5031852;28;20436;-71
2022/04/02 05:20:25;;;;;;;18.80;13.97;;;0.90;99.90;;;;;;5031837;28;20447;-69
2022/04/02 05:22:52;;;;;;;17.53;15.17;;;0.90;99.90;;;;;;5031844;28;20456;-70
2022/04/02 05:25:19;;;;;;;18.90;14.70;;;1.00;99.90;;;;;;5030604;28;20451;-71
2022/04/02 05:27:47;;;;;;;17.50;14.60;;;1.00;99.90;;;;;;5031114;28;20451;-71
2022/04/02 05:30:14;;;;;;;19.10;15.50;;;1.00;99.90;;;;;;5030906;28;20473;-70
2022/04/02 05:32:41;;;;;;;18.17;13.63;;;0.90;99.90;;;;;;5031334;28;20476;-69
2022/04/02 05:35:09;;;;;;;18.37;14.73;;;1.00;99.90;;;;;;5030263;28;20449;-71
2022/04/02 05:37:43;;;;;;;19.80;12.40;;;1.00;99.90;;;;;;5030479;28;20436;-67
2022/04/02 05:40:11;;;;;;;16.47;13.50;;;1.00;99.90;;;;;;5031162;28;20444;-69
2022/04/02 05:42:38;;;;;;;16.97;13.97;;;1.00;99.90;;;;;;5030449;28;20552;-69
2022/04/02 05:45:06;;;;;;;16.60;12.60;;;1.00;99.90;;;;;;5030009;28;20447;-70
2022/04/02 05:47:41;;;;;;;18.37;14.53;;;1.00;99.90;;;;;;5030254;28;20502;-70
2022/04/02 05:50:09;;;;;;;16.90;13.40;;;1.00;99.90;;;;;;5030281;28;20550;-70
2022/04/02 05:52:38;;;;;;;15.43;12.87;;;1.00;99.90;;;;;;5030232;28;20465;-71
2022/04/02 05:55:10;;;;;;;17.43;13.93;;;1.00;99.90;;;;;;5029817;28;20967;-69
2022/04/02 05:57:38;;;;;;;17.00;13.27;;;1.10;99.90;;;;;;5029848;28;20447;-71
2022/04/02 06:00:06;;;;;;;19.00;13.00;;;1.10;99.90;;;;;;5030027;28;20429;-70
2022/04/02 06:02:33;;;;;;;15.40;12.10;;;1.00;99.90;;;;;;5029512;28;21028;-70
2022/04/02 06:05:00;;;;;;;15.63;12.37;;;1.00;99.90;;;;;;5029805;28;20451;-73
2022/04/02 06:07:28;;;;;;;14.30;12.73;;;1.00;99.90;;;;;;5029531;28;20451;-70
2022/04/02 06:09:56;;;;;;;14.43;11.53;;;1.10;99.90;;;;;;5030426;28;20469;-71
2022/04/02 06:12:23;;;;;;;12.30;10.43;;;1.10;99.90;;;;;;5030251;28;20495;-71
2022/04/02 06:14:50;;;;;;;15.67;13.07;;;1.10;99.90;;;;;;5029697;28;21047;-71
2022/04/02 06:17:17;;;;;;;12.30;10.10;;;1.10;99.90;;;;;;5029641;28;20436;-70
2022/04/02 06:19:44;;;;;;;19.00;11.40;;;1.10;99.90;;;;;;5030020;28;20445;-71
2022/04/02 06:22:10;;;;;;;12.67;10.57;;;1.20;99.90;;;;;;5030236;28;20880;-71
2022/04/02 06:24:37;;;;;;;13.80;11.57;;;1.10;99.90;;;;;;5028850;28;20531;-70
2022/04/02 06:27:06;;;;;;;15.43;11.30;;;1.20;99.90;;;;;;5029297;28;20445;-71
2022/04/02 06:29:33;;;;;;;13.47;10.87;;;1.10;99.90;;;;;;5029362;28;20463;-72
2022/04/02 06:32:00;;;;;;;13.97;10.93;;;1.10;99.90;;;;;;5029554;28;20567;-71
2022/04/02 06:34:26;;;;;;;13.70;11.27;;;1.10;99.90;;;;;;5028524;28;20439;-71
2022/04/02 06:36:54;;;;;;;12.90;10.87;;;1.20;99.90;;;;;;5029135;28;20480;-71
2022/04/02 06:39:21;;;;;;;13.70;11.47;;;1.20;99.90;;;;;;5029335;28;20611;-71
2022/04/02 06:41:48;;;;;;;13.63;9.90;;;1.20;99.90;;;;;;5029481;28;20453;-71
2022/04/02 06:44:16;;;;;;;11.57;10.37;;;1.20;99.90;;;;;;5028349;28;20440;-72
2022/04/02 06:46:43;;;;;;;13.20;9.40;;;1.20;99.90;;;;;;5029148;28;20927;-71
2022/04/02 06:49:10;;;;;;;13.07;11.00;;;1.30;99.90;;;;;;5029244;28;20984;-70
2022/04/02 06:51:38;;;;;;;12.90;10.53;;;1.30;99.90;;;;;;5005990;28;20856;-70
2022/04/02 06:54:06;;;;;;;12.43;9.57;;;1.30;99.90;;;;;;5008756;28;20469;-70
2022/04/02 06:56:33;;;;;;;12.60;10.70;;;1.30;99.90;;;;;;5010456;28;20968;-71
2022/04/02 06:59:00;;;;;;;13.03;11.07;;;1.30;99.90;;;;;;5010229;28;20446;-69
2022/04/02 07:01:28;;;;;;;11.40;9.27;;;1.40;99.90;;;;;;5010133;28;20458;-71
2022/04/02 07:03:55;;;;;;;13.07;9.87;;;1.40;99.90;;;;;;5010112;28;20552;-73
2022/04/02 07:06:22;;;;;;;12.87;10.60;;;1.40;99.90;;;;;;5008641;28;20496;-72
2022/04/02 07:08:48;;;;;;;13.70;11.90;;;1.40;99.90;;;;;;5009658;28;20500;-73
2022/04/02 07:11:15;;;;;;;13.17;11.37;;;1.40;99.90;;;;;;5009193;28;20489;-75
2022/04/02 07:13:42;;;;;;;11.80;10.17;;;1.50;99.90;;;;;;5009407;28;20481;-71
2022/04/02 07:16:09;;;;;;;13.30;10.70;;;1.50;99.90;;;;;;5011446;28;20473;-72
2022/04/02 07:18:43;;;;;;;15.10;10.13;;;1.50;99.90;;;;;;5012780;28;20457;-66
2022/04/02 07:21:12;;;;;;;14.00;9.80;;;1.50;99.90;;;;;;5012528;28;20466;-67
2022/04/02 07:23:41;;;;;;;12.87;9.60;;;1.50;99.90;;;;;;5012703;28;20457;-71
2022/04/02 07:26:09;;;;;;;13.67;11.10;;;1.50;99.90;;;;;;5011709;28;20479;-71
2022/04/02 07:28:37;;;;;;;10.20;8.90;;;1.40;99.90;;;;;;5012280;28;20446;-71
2022/04/02 07:31:04;;;;;;;11.27;9.23;;;1.40;99.90;;;;;;5012565;28;20578;-71
2022/04/02 07:33:31;;;;;;;12.40;9.70;;;1.40;99.90;;;;;;5012724;28;20449;-69
2022/04/02 07:36:08;;;;;;;11.03;9.07;;;1.30;99.90;;;;;;5012348;28;20835;-71
2022/04/02 07:38:40;;;;;;;15.90;9.10;;;1.30;99.90;;;;;;5012189;28;20836;-67
2022/04/02 07:41:16;;;;;;;12.57;10.33;;;1.30;99.90;;;;;;5012609;28;20475;-69
2022/04/02 07:43:50;;;;;;;12.00;9.67;;;1.30;99.90;;;;;;5012380;28;20445;-69
2022/04/02 07:46:20;;;;;;;10.03;8.73;;;1.30;99.90;;;;;;5011945;28;20454;-69
2022/04/02 07:48:48;;;;;;;9.93;8.00;;;1.30;99.90;;;;;;5012343;28;20448;-70
2022/04/02 07:51:19;;;;;;;11.50;8.90;;;1.30;99.90;;;;;;5012557;28;20492;-68
2022/04/02 07:53:48;;;;;;;11.13;9.60;;;1.30;99.90;;;;;;5012405;28;20452;-68
2022/04/02 07:56:18;;;;;;;10.30;9.00;;;1.40;99.90;;;;;;5012249;28;20472;-70
2022/04/02 07:58:47;;;;;;;10.60;9.00;;;1.40;99.90;;;;;;5011854;28;20978;-68
2022/04/02 08:01:18;;;;;;;13.20;10.00;;;1.40;99.90;;;;;;5011225;28;20434;-68
2022/04/02 08:03:46;;;;;;;13.43;9.83;;;1.40;99.90;;;;;;5012124;28;20307;-68
2022/04/02 08:06:14;;;;;;;10.50;8.47;;;1.40;99.90;;;;;;5011776;28;20879;-68
2022/04/02 08:08:44;;;;;;;9.67;8.67;;;1.40;99.90;;;;;;5011756;28;20453;-70
2022/04/02 08:11:11;;;;;;;9.13;7.70;;;1.40;99.90;;;;;;5011613;28;20509;-70
2022/04/02 08:13:41;;;;;;;13.40;10.37;;;1.40;99.90;;;;;;5012230;28;20549;-68
2022/04/02 08:16:09;;;;;;;10.60;8.57;;;1.40;99.90;;;;;;5011457;28;20875;-68
2022/04/02 08:18:39;;;;;;;11.40;9.37;;;1.30;99.90;;;;;;5011609;28;20504;-68
2022/04/02 08:21:08;;;;;;;12.77;8.40;;;1.40;99.90;;;;;;5011868;28;20504;-68
2022/04/02 08:23:34;;;;;;;11.70;9.13;;;1.30;99.90;;;;;;5011813;28;20819;-66
2022/04/02 08:26:23;;;;;;;10.93;8.30;;;1.30;99.90;;;;;;5010694;28;20450;-68
2022/04/02 08:29:26;;;;;;;11.77;10.10;;;1.30;99.90;;;;;;5011826;28;20454;-68
2022/04/02 08:32:03;;;;;;;11.20;9.13;;;1.30;99.90;;;;;;4950455;28;20526;-69
2022/04/02 08:34:41;;;;;;;13.70;9.13;;;1.40;99.90;;;;;;5003530;28;20464;-70
2022/04/02 08:37:23;;;;;;;13.57;10.93;;;1.40;99.90;;;;;;5011457;28;20528;-68
2022/04/02 08:39:58;;;;;;;13.80;10.10;;;1.50;99.90;;;;;;5011602;28;20484;-69
2022/04/02 08:43:05;;;;;;;13.57;10.17;;;1.50;99.90;;;;;;5011337;28;20496;-70
2022/04/02 08:45:34;;;;;;;13.23;10.50;;;1.40;99.90;;;;;;5010450;28;20453;-70
2022/04/02 08:48:21;;;;;;;15.30;11.23;;;1.40;99.90;;;;;;5010907;28;20450;-70
2022/04/02 08:50:51;;;;;;;15.63;14.03;;;1.50;99.90;;;;;;5011291;28;20478;-69
2022/04/02 08:53:20;;;;;;;16.67;13.90;;;1.40;99.90;;;;;;5005164;28;20462;-69
2022/04/02 08:55:49;;;;;;;15.37;12.23;;;1.50;99.90;;;;;;5009741;28;20455;-68
2022/04/02 08:58:26;;;;;;;13.97;12.03;;;1.40;99.90;;;;;;5009632;28;20480;-69
2022/04/02 09:01:08;;;;;;;14.90;13.27;;;1.50;99.90;;;;;;5007441;28;20490;-69
2022/04/02 09:04:12;;;;;;;17.17;12.10;;;1.50;99.90;;;;;;4997820;28;20951;-70
2022/04/02 09:07:14;;;;;;;17.03;12.93;;;1.40;99.90;;;;;;5005425;28;20469;-71
2022/04/02 09:10:06;;;;;;;15.43;11.77;;;1.40;99.90;;;;;;5009582;28;20536;-74
2022/04/02 09:12:51;;;;;;;12.50;10.93;;;1.40;99.90;;;;;;5008251;28;20486;-68
2022/04/02 09:15:29;;;;;;;16.90;12.47;;;1.30;99.90;;;;;;5004635;28;20461;-70
2022/04/02 09:18:02;;;;;;;16.23;13.27;;;1.30;99.90;;;;;;5002138;28;20469;-69
2022/04/02 09:20:44;;;;;;;20.67;15.17;;;1.30;99.90;;;;;;5003693;28;20470;-69
2022/04/02 09:23:15;;;;;;;19.50;12.87;;;1.30;99.90;;;;;;5008967;28;20450;-68
2022/04/02 09:26:31;;;;;;;18.37;14.80;;;1.20;99.90;;;;;;5008968;28;20869;-69
2022/04/02 09:29:14;;;;;;;16.20;13.43;;;1.30;99.90;;;;;;4976828;28;20521;-68
2022/04/02 09:32:09;;;;;;;18.30;13.80;;;1.30;99.90;;;;;;5017037;28;20485;-69
2022/04/02 09:35:08;;;;;;;20.70;16.53;;;1.30;99.90;;;;;;5008795;28;20833;-64
2022/04/02 09:38:08;;;;;;;20.67;15.17;;;1.40;99.90;;;;;;5009262;28;20442;-65
2022/04/02 09:40:45;;;;;;;19.33;15.97;;;1.20;99.90;;;;;;5000375;28;20531;-64
2022/04/02 09:43:18;;;;;;;30.63;15.47;;;1.10;99.90;;;;;;5005785;28;20472;-66
2022/04/02 09:45:59;;;;;;;20.63;15.00;;;1.10;99.90;;;;;;4999257;28;20458;-65
2022/04/02 09:48:31;;;;;;;19.70;16.13;;;1.10;99.90;;;;;;5004137;28;20952;-63
2022/04/02 09:50:59;;;;;;;22.37;16.00;;;1.10;99.90;;;;;;5013572;28;20505;-64
2022/04/02 09:53:29;;;;;;;20.03;14.33;;;1.10;99.90;;;;;;5008507;28;20565;-65
2022/04/02 09:56:15;;;;;;;19.33;14.97;;;1.20;99.90;;;;;;5012267;28;20482;-64
2022/04/02 09:58:59;;;;;;;15.77;13.57;;;1.30;99.90;;;;;;5017233;28;20540;-64
2022/04/02 10:01:30;;;;;;;17.87;14.70;;;1.40;99.90;;;;;;5009170;28;20472;-64
2022/04/02 10:04:01;;;;;;;18.40;14.30;;;1.40;99.90;;;;;;5009175;28;20469;-65
2022/04/02 10:06:35;;;;;;;18.87;14.10;;;1.20;99.90;;;;;;5011436;28;21127;-66
2022/04/02 10:09:08;;;;;;;16.27;13.77;;;1.20;99.90;;;;;;5017005;28;20484;-66
2022/04/02 10:11:39;;;;;;;21.43;15.33;;;1.30;99.90;;;;;;5010283;28;20560;-67
2022/04/02 10:14:07;;;;;;;17.00;13.80;;;1.30;99.90;;;;;;5009561;28;20473;-66
2022/04/02 10:16:35;;;;;;;17.93;14.13;;;1.40;99.90;;;;;;5010413;28;20486;-67
2022/04/02 10:19:09;;;;;;;13.83;10.63;;;1.40;99.90;;;;;;5012707;28;20466;-69
2022/04/02 10:21:38;;;;;;;15.50;12.40;;;1.30;99.90;;;;;;5005838;28;20482;-65
2022/04/02 10:24:19;;;;;;;16.70;12.47;;;1.40;99.90;;;;;;5011552;28;20527;-66
2022/04/02 10:26:50;;;;;;;16.03;13.47;;;1.50;99.90;;;;;;5013086;28;20817;-72
2022/04/02 10:29:38;;;;;;;14.50;11.77;;;1.50;99.90;;;;;;5009811;28;20480;-75
2022/04/02 10:32:20;;;;;;;14.47;12.07;;;1.40;99.90;;;;;;4992163;28;20486;-74
2022/04/02 10:34:55;;;;;;;12.50;10.63;;;1.40;99.90;;;;;;5007131;28;20480;-75
2022/04/02 10:37:28;;;;;;;18.20;14.07;;;1.30;99.90;;;;;;5005442;28;20449;-74
2022/04/02 10:40:00;;;;;;;17.17;11.80;;;1.40;99.90;;;;;;5009528;28;20840;-67
2022/04/02 10:42:33;;;;;;;17.10;12.10;;;1.40;99.90;;;;;;5008359;28;20466;-68
2022/04/02 10:45:02;;;;;;;16.20;13.57;;;1.40;99.90;;;;;;5008858;28;20449;-68
2022/04/02 10:47:30;;;;;;;19.43;15.90;;;1.60;99.90;;;;;;5011374;28;20453;-68
2022/04/02 10:50:04;;;;;;;15.77;12.33;;;1.60;99.90;;;;;;5007000;28;20480;-70
2022/04/02 10:52:32;;;;;;;18.73;14.80;;;1.60;99.90;;;;;;5011836;28;20488;-68
2022/04/02 10:54:59;;;;;;;19.00;14.40;;;1.60;99.90;;;;;;5023261;28;20456;-68
2022/04/02 10:57:28;;;;;;;16.00;12.40;;;1.60;99.90;;;;;;5020897;28;20465;-69
2022/04/02 11:00:00;;;;;;;16.20;13.03;;;1.60;99.90;;;;;;5020299;28;20453;-68
2022/04/02 11:02:41;;;;;;;14.80;12.00;;;1.70;99.90;;;;;;5030923;28;20468;-69
2022/04/02 11:05:11;;;;;;;18.00;13.70;;;1.80;99.90;;;;;;5012331;28;20871;-68
2022/04/02 11:07:40;;;;;;;15.83;13.30;;;1.80;99.90;;;;;;5012800;28;20471;-69
2022/04/02 11:10:08;;;;;;;15.10;13.50;;;1.80;99.90;;;;;;5013497;28;20463;-68
2022/04/02 11:12:38;;;;;;;13.03;10.93;;;1.80;99.90;;;;;;5005843;28;20478;-68
2022/04/02 11:15:14;;;;;;;15.70;12.97;;;1.60;99.90;;;;;;5007938;28;20456;-69
2022/04/02 11:17:42;;;;;;;15.03;13.40;;;1.40;99.90;;;;;;5007407;28;20836;-68
2022/04/02 11:20:13;;;;;;;18.77;15.50;;;1.40;99.90;;;;;;5009042;28;20460;-68
2022/04/02 11:22:50;;;;;;;21.33;15.13;;;1.40;99.90;;;;;;5004529;28;20473;-68
2022/04/02 11:25:24;;;;;;;17.70;13.97;;;1.30;99.90;;;;;;5001066;28;20517;-67
2022/04/02 11:27:54;;;;;;;17.43;13.23;;;1.20;99.90;;;;;;5007801;28;20547;-68
2022/04/02 11:30:23;;;;;;;15.63;12.37;;;1.20;99.90;;;;;;5009541;28;20457;-68
2022/04/02 11:32:51;;;;;;;18.87;13.50;;;1.20;99.90;;;;;;5012947;28;20572;-66
2022/04/02 11:35:23;;;;;;;18.07;14.00;;;1.30;99.90;;;;;;5007931;28;20465;-67
2022/04/02 11:37:58;;;;;;;18.77;15.30;;;1.40;99.90;;;;;;5011402;28;20453;-68
2022/04/02 11:40:28;;;;;;;19.00;15.10;;;1.50;99.90;;;;;;5005406;28;20461;-67
2022/04/02 11:42:55;;;;;;;19.10;15.23;;;1.50;99.90;;;;;;5012712;28;20835;-68
2022/04/02 11:45:23;;;;;;;21.70;14.53;;;1.50;99.90;;;;;;5007935;28;20454;-68
2022/04/02 11:47:51;;;;;;;12.37;10.93;;;1.60;99.90;;;;;;5006657;28;20462;-67
2022/04/02 11:50:29;;;;;;;15.77;12.73;;;1.40;99.90;;;;;;5010473;28;20535;-67
2022/04/02 11:52:57;;;;;;;14.97;12.80;;;1.40;99.90;;;;;;5013018;28;20931;-68
2022/04/02 11:55:26;;;;;;;15.20;12.80;;;1.30;99.90;;;;;;5010685;28;20450;-69
2022/04/02 11:58:00;;;;;;;16.60;12.73;;;1.30;99.90;;;;;;5010824;28;20836;-68
2022/04/02 12:00:29;;;;;;;17.93;13.80;;;1.20;99.90;;;;;;5012009;28;20986;-69
2022/04/02 12:02:56;;;;;;;22.07;15.90;;;1.20;99.90;;;;;;5012503;28;20511;-68
2022/04/02 12:05:36;;;;;;;19.57;15.77;;;1.30;99.90;;;;;;5010118;28;20450;-67
2022/04/02 12:08:04;;;;;;;19.23;15.30;;;1.40;99.90;;;;;;5011836;28;20463;-68
2022/04/02 12:10:32;;;;;;;18.80;16.07;;;1.50;99.90;;;;;;5011886;28;20456;-66
2022/04/02 12:13:02;;;;;;;18.40;15.10;;;1.50;99.90;;;;;;5012881;28;20488;-69
2022/04/02 12:15:29;;;;;;;22.00;16.10;;;1.40;99.90;;;;;;5012802;28;20454;-67
2022/04/02 12:18:02;;;;;;;17.17;14.63;;;1.30;99.90;;;;;;5013083;28;20511;-66
2022/04/02 12:20:31;;;;;;;19.60;15.53;;;1.30;99.90;;;;;;5010511;28;20761;-67
2022/04/02 12:23:10;;;;;;;21.73;17.00;;;1.30;99.90;;;;;;5010292;28;20517;-67
2022/04/02 12:25:38;;;;;;;17.50;14.17;;;1.30;99.90;;;;;;5010012;28;20512;-66
2022/04/02 12:28:14;;;;;;;19.57;12.73;;;1.30;99.90;;;;;;5010016;28;20553;-66
2022/04/02 12:30:48;;;;;;;16.67;14.90;;;1.50;99.90;;;;;;5025979;28;20445;-66
2022/04/02 12:33:18;;;;;;;18.17;14.60;;;1.60;99.90;;;;;;5003231;28;20492;-68
2022/04/02 12:35:47;;;;;;;15.50;13.67;;;1.60;99.90;;;;;;5010457;28;20484;-67
2022/04/02 12:38:28;;;;;;;19.37;14.13;;;1.60;99.90;;;;;;5010662;28;21014;-67
2022/04/02 12:40:56;;;;;;;18.33;15.07;;;1.70;99.90;;;;;;5012598;28;20450;-68
2022/04/02 12:43:26;;;;;;;18.73;13.67;;;1.70;99.90;;;;;;5010899;28;20454;-65
2022/04/02 12:45:53;;;;;;;18.50;14.93;;;1.60;99.90;;;;;;5010417;28;20456;-67
2022/04/02 12:48:21;;;;;;;17.80;15.00;;;1.50;99.90;;;;;;5010736;28;20894;-67
2022/04/02 12:50:53;;;;;;;17.13;13.97;;;1.50;99.90;;;;;;5013359;28;20446;-67
2022/04/02 12:53:32;;;;;;;17.20;13.50;;;1.50;99.90;;;;;;5011179;28;20498;-67
2022/04/02 12:56:00;;;;;;;18.40;14.53;;;1.50;99.90;;;;;;4991060;28;20457;-67
2022/04/02 12:58:32;;;;;;;19.00;15.33;;;1.60;99.90;;;;;;5001195;28;20965;-69